Time;durP1;ratioP1;P1;durP2;ratioP2;P2;SDS_P1;SDS_P2;PMS_P1;PMS_P2;Temp;Humidity;BMP_temperature;BMP_pressure;BME280_temperature;BME280_humidity;BME280_pressure;Samples;Min_cycle;Max_cycle;Signal;HPM_P1;HPM_P2
2021/01/04 00:00:11;;;;;;;16.88;9.10;;;3.50;99.90;;;;;;5094778;28;19903;-60
2021/01/04 00:02:40;;;;;;;16.25;9.73;;;3.50;99.90;;;;;;5125741;22;20055;-69
2021/01/04 00:05:13;;;;;;;17.33;9.73;;;3.50;99.90;;;;;;5109762;28;20050;-69
2021/01/04 00:08:01;;;;;;;19.50;9.52;;;3.50;99.90;;;;;;5112522;28;20050;-68
2021/01/04 00:11:04;;;;;;;21.00;10.55;;;3.50;99.90;;;;;;5112528;28;20028;-71
2021/01/04 00:13:39;;;;;;;19.80;10.07;;;3.60;99.90;;;;;;5112087;28;20043;-70
2021/01/04 00:16:26;;;;;;;17.80;10.48;;;3.50;99.90;;;;;;5112916;28;20468;-70
2021/01/04 00:19:17;;;;;;;21.02;10.43;;;3.60;99.90;;;;;;5111105;28;20027;-67
2021/01/04 00:22:28;;;;;;;18.10;10.05;;;3.50;99.90;;;;;;5113743;28;20118;-69
2021/01/04 00:25:20;;;;;;;17.75;10.45;;;3.50;99.90;;;;;;5076058;28;20032;-70
2021/01/04 00:27:50;;;;;;;19.73;10.73;;;3.50;99.90;;;;;;5124421;27;20161;-71
2021/01/04 00:30:30;;;;;;;19.80;10.20;;;3.50;99.90;;;;;;5108082;27;20034;-70
2021/01/04 00:33:05;;;;;;;19.63;10.32;;;3.50;99.90;;;;;;5118454;27;20027;-70
2021/01/04 00:35:31;;;;;;;15.45;9.60;;;3.50;99.90;;;;;;5103175;27;20015;-70
2021/01/04 00:38:21;;;;;;;21.60;10.63;;;3.50;99.90;;;;;;5122629;27;20027;-70
2021/01/04 00:41:09;;;;;;;18.33;10.85;;;3.50;99.90;;;;;;5112079;28;20019;-70
2021/01/04 00:43:45;;;;;;;23.40;10.75;;;3.50;99.90;;;;;;5107622;28;20089;-70
2021/01/04 00:46:16;;;;;;;18.95;10.60;;;3.50;99.90;;;;;;5100898;28;20411;-68
2021/01/04 00:48:56;;;;;;;19.13;10.13;;;3.60;99.90;;;;;;5125349;27;20057;-69
2021/01/04 00:51:59;;;;;;;20.17;10.25;;;3.50;99.90;;;;;;5130322;27;20023;-69
2021/01/04 00:55:06;;;;;;;18.98;10.48;;;3.50;99.90;;;;;;5109605;28;20080;-71
2021/01/04 00:58:01;;;;;;;19.80;10.82;;;3.50;99.90;;;;;;5044280;28;20029;-69
2021/01/04 01:00:51;;;;;;;20.42;10.35;;;3.50;99.90;;;;;;5042717;28;20025;-70
2021/01/04 01:03:33;;;;;;;19.80;10.35;;;3.50;99.90;;;;;;5101930;27;20036;-69
2021/01/04 01:06:24;;;;;;;20.33;10.40;;;3.50;99.90;;;;;;5112821;27;20058;-70
2021/01/04 01:08:54;;;;;;;21.25;11.27;;;3.50;99.90;;;;;;5110735;27;20027;-68
2021/01/04 01:11:51;;;;;;;28.35;11.18;;;3.50;99.90;;;;;;5109484;27;20122;-69
2021/01/04 01:14:28;;;;;;;27.23;11.43;;;3.50;99.90;;;;;;5108171;28;20088;-69
2021/01/04 01:17:13;;;;;;;22.55;11.68;;;3.50;99.90;;;;;;5112534;28;20028;-70
2021/01/04 01:19:52;;;;;;;22.25;11.35;;;3.40;99.90;;;;;;5112173;28;20020;-70
2021/01/04 01:22:33;;;;;;;19.90;11.02;;;3.40;99.90;;;;;;5110142;28;20034;-70
2021/01/04 01:25:05;;;;;;;17.75;10.25;;;3.40;99.90;;;;;;5110483;27;20380;-68
2021/01/04 01:27:55;;;;;;;16.60;9.43;;;3.50;99.90;;;;;;5102994;27;20028;-70
2021/01/04 01:30:48;;;;;;;16.63;9.48;;;3.50;99.90;;;;;;5112264;27;20036;-71
2021/01/04 01:33:35;;;;;;;15.70;10.23;;;3.50;99.90;;;;;;5118649;27;20019;-69
2021/01/04 01:36:50;;;;;;;17.48;10.13;;;3.50;99.90;;;;;;5110906;27;20049;-71
2021/01/04 01:39:45;;;;;;;22.63;11.05;;;3.50;99.90;;;;;;5100814;28;20020;-70
2021/01/04 01:42:44;;;;;;;16.77;9.57;;;3.50;99.90;;;;;;5107693;27;20519;-72
2021/01/04 01:45:21;;;;;;;17.00;10.27;;;3.40;99.90;;;;;;5103371;28;20026;-69
2021/01/04 01:48:05;;;;;;;19.88;11.48;;;3.40;99.90;;;;;;5108976;28;20030;-66
2021/01/04 01:50:48;;;;;;;20.67;10.35;;;3.50;99.90;;;;;;5111827;28;20020;-70
2021/01/04 01:53:35;;;;;;;18.10;11.05;;;3.50;99.90;;;;;;5109159;28;20026;-70
2021/01/04 01:56:13;;;;;;;20.60;10.95;;;3.50;99.90;;;;;;5110666;28;20027;-70
2021/01/04 01:58:57;;;;;;;22.90;10.85;;;3.40;99.90;;;;;;5110075;28;20030;-69
2021/01/04 02:01:51;;;;;;;16.75;10.23;;;3.50;99.90;;;;;;5109830;28;20107;-69
2021/01/04 02:04:42;;;;;;;17.38;10.18;;;3.40;99.90;;;;;;5100821;28;20027;-71
2021/01/04 02:07:39;;;;;;;19.00;10.82;;;3.40;99.90;;;;;;5108021;28;20035;-71
2021/01/04 02:10:13;;;;;;;20.42;11.07;;;3.50;99.90;;;;;;5105543;28;20051;-71
2021/01/04 02:13:25;;;;;;;20.15;10.18;;;3.40;99.90;;;;;;5106473;28;20027;-69
2021/01/04 02:16:04;;;;;;;16.95;9.82;;;3.40;99.90;;;;;;5104369;28;20494;-69
2021/01/04 02:18:51;;;;;;;17.42;10.63;;;3.50;99.90;;;;;;5106416;28;20264;-69
2021/01/04 02:21:39;;;;;;;15.68;11.40;;;3.40;99.90;;;;;;5106084;28;20134;-69
2021/01/04 02:24:08;;;;;;;15.40;9.88;;;3.40;99.90;;;;;;5107450;28;20027;-73
2021/01/04 02:26:36;;;;;;;16.50;9.60;;;3.40;99.90;;;;;;5109444;28;20023;-72
2021/01/04 02:29:16;;;;;;;18.45;9.85;;;3.40;99.90;;;;;;5110211;28;20035;-71
2021/01/04 02:31:50;;;;;;;16.75;10.50;;;3.40;99.90;;;;;;5104884;28;20051;-71
2021/01/04 02:34:20;;;;;;;18.38;10.77;;;3.40;99.90;;;;;;5079513;28;20028;-71
2021/01/04 02:36:51;;;;;;;17.35;10.77;;;3.40;99.90;;;;;;5109728;28;20035;-68
2021/01/04 02:39:19;;;;;;;18.20;10.68;;;3.40;99.90;;;;;;5100766;28;20057;-72
2021/01/04 02:42:17;;;;;;;24.20;11.20;;;3.40;99.90;;;;;;5117602;28;20463;-70
2021/01/04 02:44:50;;;;;;;17.98;10.90;;;3.30;99.90;;;;;;5104893;28;20099;-71
2021/01/04 02:47:28;;;;;;;19.67;11.48;;;3.30;99.90;;;;;;5071626;28;20147;-71
2021/01/04 02:50:14;;;;;;;20.42;12.10;;;3.30;99.90;;;;;;5096217;28;20036;-70
2021/01/04 02:52:59;;;;;;;17.23;11.02;;;3.30;99.90;;;;;;5107481;28;20032;-71
2021/01/04 02:55:33;;;;;;;20.60;11.18;;;3.30;99.90;;;;;;5099172;28;20030;-69
2021/01/04 02:58:04;;;;;;;19.77;11.70;;;3.30;99.90;;;;;;5093998;28;20696;-69
2021/01/04 03:00:32;;;;;;;21.92;12.00;;;3.30;99.90;;;;;;5103460;28;20015;-68
2021/01/04 03:03:04;;;;;;;19.98;11.65;;;3.30;99.90;;;;;;5082681;28;731666;-70
2021/01/04 03:05:30;;;;;;;23.83;11.75;;;3.30;99.90;;;;;;5110318;28;20059;-70
2021/01/04 03:07:59;;;;;;;16.17;9.95;;;3.30;99.90;;;;;;5103769;28;20062;-69
2021/01/04 03:10:37;;;;;;;17.15;9.82;;;3.30;99.90;;;;;;5106702;28;20541;-69
2021/01/04 03:13:20;;;;;;;17.27;10.02;;;3.30;99.90;;;;;;5099296;28;20031;-71
2021/01/04 03:16:06;;;;;;;20.50;10.50;;;3.30;99.90;;;;;;5118184;27;20027;-69
2021/01/04 03:18:58;;;;;;;22.38;10.43;;;3.30;99.90;;;;;;5107951;28;20019;-70
2021/01/04 03:21:27;;;;;;;18.05;10.25;;;3.30;99.90;;;;;;5100717;28;20032;-69
2021/01/04 03:23:54;;;;;;;16.48;10.68;;;3.30;99.90;;;;;;5102051;28;20032;-70
2021/01/04 03:26:26;;;;;;;16.30;10.07;;;3.30;99.90;;;;;;5105981;28;20094;-72
2021/01/04 03:28:52;;;;;;;17.60;9.93;;;3.30;99.90;;;;;;5091693;28;20035;-72
2021/01/04 03:31:18;;;;;;;18.45;10.60;;;3.30;99.90;;;;;;5099523;28;20032;-71
2021/01/04 03:33:44;;;;;;;19.23;10.80;;;3.30;99.90;;;;;;5109174;28;20396;-70
2021/01/04 03:36:09;;;;;;;16.02;9.55;;;3.30;99.90;;;;;;5107898;28;20080;-70
2021/01/04 03:38:35;;;;;;;14.85;9.75;;;3.30;99.90;;;;;;5108344;28;20019;-72
2021/01/04 03:41:02;;;;;;;14.95;9.43;;;3.30;99.90;;;;;;5098649;28;20077;-70
2021/01/04 03:43:29;;;;;;;14.93;9.02;;;3.30;99.90;;;;;;5109077;28;20012;-70
2021/01/04 03:45:55;;;;;;;19.70;9.32;;;3.30;99.90;;;;;;5105500;28;20085;-68
2021/01/04 03:48:22;;;;;;;14.32;9.98;;;3.30;99.90;;;;;;5111780;28;20039;-68
2021/01/04 03:50:51;;;;;;;19.17;10.93;;;3.40;99.90;;;;;;5104774;28;20019;-70
2021/01/04 03:53:17;;;;;;;14.70;9.43;;;3.40;99.90;;;;;;5103932;28;20122;-70
2021/01/04 03:55:43;;;;;;;15.32;9.85;;;3.30;99.90;;;;;;5107926;28;20040;-71
2021/01/04 03:58:10;;;;;;;19.85;10.57;;;3.30;99.90;;;;;;5109574;28;20030;-69
2021/01/04 04:00:37;;;;;;;16.35;9.43;;;3.30;99.90;;;;;;5114096;28;20038;-69
2021/01/04 04:03:04;;;;;;;16.35;9.48;;;3.30;99.90;;;;;;5118185;28;20050;-69
2021/01/04 04:05:31;;;;;;;18.58;10.07;;;3.30;99.90;;;;;;5119028;28;20096;-68
2021/01/04 04:07:58;;;;;;;15.70;9.68;;;3.30;99.90;;;;;;5114977;28;20031;-71
2021/01/04 04:10:24;;;;;;;16.88;9.73;;;3.30;99.90;;;;;;5102675;28;20244;-70
2021/01/04 04:12:50;;;;;;;14.90;8.80;;;3.30;99.90;;;;;;5108323;28;20080;-70
2021/01/04 04:15:18;;;;;;;15.40;9.73;;;3.30;99.90;;;;;;5107419;28;20429;-69
2021/01/04 04:17:46;;;;;;;14.57;8.90;;;3.30;99.90;;;;;;5101086;28;20020;-70
2021/01/04 04:20:18;;;;;;;15.85;8.80;;;3.40;99.90;;;;;;5107407;28;20125;-68
2021/01/04 04:22:50;;;;;;;15.38;8.65;;;3.40;99.90;;;;;;5099228;28;20427;-72
2021/01/04 04:25:19;;;;;;;13.75;8.23;;;3.40;99.90;;;;;;5106848;28;20063;-68
2021/01/04 04:27:45;;;;;;;14.13;8.73;;;3.40;99.90;;;;;;5104794;28;20392;-69
2021/01/04 04:30:14;;;;;;;13.20;8.10;;;3.40;99.90;;;;;;5117506;28;20029;-70
2021/01/04 04:32:41;;;;;;;14.50;8.75;;;3.40;99.90;;;;;;5114373;28;20106;-69
2021/01/04 04:35:13;;;;;;;15.38;8.68;;;3.40;99.90;;;;;;5123724;27;20020;-71
2021/01/04 04:37:43;;;;;;;14.20;8.23;;;3.30;99.90;;;;;;5110618;28;20068;-69
2021/01/04 04:40:16;;;;;;;15.15;9.05;;;3.40;99.90;;;;;;5116362;27;20020;-69
2021/01/04 04:42:45;;;;;;;11.18;8.10;;;3.40;99.90;;;;;;5117850;28;20066;-70
2021/01/04 04:45:19;;;;;;;15.25;8.65;;;3.30;99.90;;;;;;5116763;27;20069;-69
2021/01/04 04:48:39;;;;;;;15.32;8.55;;;3.30;99.90;;;;;;5113603;27;20651;-69
2021/01/04 04:51:20;;;;;;;12.13;8.38;;;3.30;99.90;;;;;;5045728;28;20048;-68
2021/01/04 04:54:11;;;;;;;14.15;8.52;;;3.30;99.90;;;;;;5105610;27;20027;-68
2021/01/04 04:57:02;;;;;;;12.63;9.02;;;3.40;99.90;;;;;;5111867;27;20126;-70
2021/01/04 04:59:33;;;;;;;13.48;8.93;;;3.40;99.90;;;;;;5112532;28;20064;-71
2021/01/04 05:02:24;;;;;;;11.70;8.27;;;3.40;99.90;;;;;;5099129;28;20108;-70
2021/01/04 05:05:07;;;;;;;13.20;8.95;;;3.40;99.90;;;;;;5109542;27;20420;-69
2021/01/04 05:07:53;;;;;;;17.85;10.77;;;3.40;99.90;;;;;;5111626;28;20011;-70
2021/01/04 05:10:21;;;;;;;15.60;9.82;;;3.30;99.90;;;;;;5111254;28;20047;-69
2021/01/04 05:13:24;;;;;;;14.90;9.75;;;3.40;99.90;;;;;;5110691;27;20024;-69
2021/01/04 05:16:00;;;;;;;19.48;11.02;;;3.40;99.90;;;;;;5028198;28;20225;-69
2021/01/04 05:18:44;;;;;;;16.77;10.23;;;3.40;99.90;;;;;;5101045;28;20042;-70
2021/01/04 05:21:22;;;;;;;17.35;10.48;;;3.40;99.90;;;;;;5118751;27;20088;-67
2021/01/04 05:24:30;;;;;;;23.17;10.57;;;3.50;99.90;;;;;;5113415;27;20071;-69
2021/01/04 05:27:17;;;;;;;18.75;11.20;;;3.40;99.90;;;;;;5115096;27;20291;-70
2021/01/04 05:30:20;;;;;;;19.50;11.75;;;3.40;99.90;;;;;;5111444;28;20524;-70
2021/01/04 05:33:17;;;;;;;19.55;11.80;;;3.40;99.90;;;;;;5108089;27;20175;-70
2021/01/04 05:35:45;;;;;;;19.42;11.80;;;3.40;99.90;;;;;;5108092;27;20473;-69
2021/01/04 05:38:59;;;;;;;22.77;11.18;;;3.40;99.90;;;;;;5105820;28;20388;-69
2021/01/04 05:41:46;;;;;;;19.73;10.60;;;3.40;99.90;;;;;;5110825;28;20029;-70
2021/01/04 05:44:32;;;;;;;16.77;11.05;;;3.40;99.90;;;;;;5111243;27;20046;-71
2021/01/04 05:47:20;;;;;;;18.73;11.40;;;3.40;99.90;;;;;;5110641;27;20084;-69
2021/01/04 05:50:06;;;;;;;18.17;11.02;;;3.40;99.90;;;;;;5116170;27;20043;-68
2021/01/04 05:52:36;;;;;;;18.60;11.20;;;3.50;99.90;;;;;;5111163;28;20020;-70
2021/01/04 05:55:02;;;;;;;21.40;10.80;;;3.50;99.90;;;;;;5116741;27;20107;-68
2021/01/04 05:57:28;;;;;;;17.70;10.55;;;3.50;99.90;;;;;;5117061;27;20107;-69
2021/01/04 05:59:54;;;;;;;18.67;10.10;;;3.40;99.90;;;;;;5110451;27;20380;-70
2021/01/04 06:02:25;;;;;;;17.73;10.40;;;3.50;99.90;;;;;;5117497;27;20077;-69
2021/01/04 06:04:50;;;;;;;15.35;9.50;;;3.50;99.90;;;;;;5116260;27;20041;-70
2021/01/04 06:07:17;;;;;;;15.35;8.80;;;3.50;99.90;;;;;;5125330;27;20019;-71
2021/01/04 06:09:54;;;;;;;18.23;9.27;;;3.50;99.90;;;;;;5120644;27;20082;-70
2021/01/04 06:12:48;;;;;;;25.90;10.50;;;3.50;99.90;;;;;;5111564;27;20380;-67
2021/01/04 06:15:24;;;;;;;14.30;8.52;;;3.40;99.90;;;;;;5117316;27;20031;-68
2021/01/04 06:17:50;;;;;;;18.23;10.63;;;3.40;99.90;;;;;;5119118;27;20024;-70
2021/01/04 06:20:38;;;;;;;16.25;9.30;;;3.50;99.90;;;;;;5124827;27;20023;-71
2021/01/04 06:23:20;;;;;;;14.30;9.00;;;3.50;99.90;;;;;;5126693;27;20015;-70
2021/01/04 06:25:56;;;;;;;18.35;10.60;;;3.50;99.90;;;;;;5100338;27;20031;-69
2021/01/04 06:28:22;;;;;;;14.25;9.30;;;3.50;99.90;;;;;;5097611;28;20067;-68
2021/01/04 06:31:07;;;;;;;17.23;9.45;;;3.50;99.90;;;;;;5110511;27;20070;-68
2021/01/04 06:33:33;;;;;;;17.30;9.60;;;3.50;99.90;;;;;;5114580;27;20023;-69
2021/01/04 06:36:06;;;;;;;18.05;9.60;;;3.50;99.90;;;;;;5102012;27;20028;-70
2021/01/04 06:38:36;;;;;;;18.25;10.55;;;3.50;99.90;;;;;;5110095;28;20023;-68
2021/01/04 06:41:28;;;;;;;15.02;9.38;;;3.50;99.90;;;;;;5110501;28;20024;-68
2021/01/04 06:43:53;;;;;;;15.57;9.73;;;3.50;99.90;;;;;;5129520;27;20023;-67
2021/01/04 06:46:40;;;;;;;19.20;9.77;;;3.50;99.90;;;;;;5124602;27;21317;-69
2021/01/04 06:49:19;;;;;;;20.13;10.27;;;3.50;99.90;;;;;;5110681;27;20064;-68
2021/01/04 06:51:48;;;;;;;18.98;10.57;;;3.50;99.90;;;;;;5117024;27;20110;-68
2021/01/04 06:54:38;;;;;;;17.88;10.30;;;3.50;99.90;;;;;;5123136;27;20030;-67
2021/01/04 06:57:20;;;;;;;17.45;10.65;;;3.50;99.90;;;;;;5120091;27;20615;-68
2021/01/04 07:00:40;;;;;;;16.13;10.02;;;3.50;99.90;;;;;;5111351;27;20027;-68
2021/01/04 07:03:24;;;;;;;19.02;9.77;;;3.50;99.90;;;;;;5059037;28;20055;-70
2021/01/04 07:06:14;;;;;;;16.20;10.05;;;3.50;99.90;;;;;;5132573;27;20035;-69
2021/01/04 07:08:58;;;;;;;19.45;10.60;;;3.50;99.90;;;;;;5109556;28;20533;-71
2021/01/04 07:11:40;;;;;;;21.58;12.05;;;3.50;99.90;;;;;;5099625;28;20202;-69
2021/01/04 07:14:52;;;;;;;19.95;11.18;;;3.50;99.90;;;;;;5111365;27;20375;-68
2021/01/04 07:17:18;;;;;;;18.98;10.32;;;3.50;99.90;;;;;;5094725;27;20038;-69
2021/01/04 07:20:14;;;;;;;18.48;10.35;;;3.50;99.90;;;;;;5109431;28;20392;-70
2021/01/04 07:22:58;;;;;;;21.30;10.98;;;3.50;99.90;;;;;;5109495;27;20502;-68
2021/01/04 07:25:35;;;;;;;18.63;10.32;;;3.50;99.90;;;;;;5112917;27;20068;-71
2021/01/04 07:28:12;;;;;;;16.55;10.45;;;3.60;99.90;;;;;;5108751;27;20161;-71
2021/01/04 07:30:49;;;;;;;19.05;10.63;;;3.60;99.90;;;;;;5110989;27;20035;-71
2021/01/04 07:33:23;;;;;;;21.17;11.23;;;3.50;99.90;;;;;;5112924;27;20051;-70
2021/01/04 07:36:14;;;;;;;17.67;9.95;;;3.50;99.90;;;;;;5114094;27;20028;-69
2021/01/04 07:38:58;;;;;;;14.75;9.68;;;3.60;99.90;;;;;;5104969;28;20566;-70
2021/01/04 07:41:36;;;;;;;16.90;9.13;;;3.50;99.90;;;;;;5112578;27;20081;-71
2021/01/04 07:44:05;;;;;;;20.17;10.35;;;3.50;99.90;;;;;;5108720;28;20030;-70
2021/01/04 07:46:49;;;;;;;18.55;10.32;;;3.60;99.90;;;;;;5110802;28;20020;-69
2021/01/04 07:49:29;;;;;;;19.58;9.57;;;3.60;99.90;;;;;;5102684;28;20040;-70
2021/01/04 07:52:24;;;;;;;20.08;10.00;;;3.60;99.90;;;;;;5108128;28;20028;-71
2021/01/04 07:55:35;;;;;;;19.00;9.32;;;3.50;99.90;;;;;;5112605;28;20114;-71
2021/01/04 07:58:38;;;;;;;15.90;9.07;;;3.50;99.90;;;;;;5108210;28;20050;-68
2021/01/04 08:01:36;;;;;;;16.55;9.88;;;3.60;99.90;;;;;;5106024;28;20012;-69
2021/01/04 08:04:49;;;;;;;16.85;9.48;;;3.50;99.90;;;;;;5063636;28;20048;-72
2021/01/04 08:07:52;;;;;;;20.00;9.00;;;3.50;99.90;;;;;;5035165;28;20079;-70
2021/01/04 08:11:00;;;;;;;17.83;9.63;;;3.50;99.90;;;;;;5084046;28;20043;-67
2021/01/04 08:13:45;;;;;;;15.95;8.90;;;3.50;99.90;;;;;;5088428;28;20107;-68
2021/01/04 08:16:24;;;;;;;15.30;9.20;;;3.50;99.90;;;;;;5089028;28;20027;-70
2021/01/04 08:18:55;;;;;;;21.58;9.98;;;3.50;99.90;;;;;;5084057;28;20489;-69
2021/01/04 08:21:35;;;;;;;17.27;9.38;;;3.50;99.90;;;;;;5072112;28;20066;-70
2021/01/04 08:24:21;;;;;;;17.05;8.27;;;3.50;99.90;;;;;;5092320;28;20107;-71
2021/01/04 08:27:20;;;;;;;18.25;8.27;;;3.50;99.90;;;;;;5091572;28;20428;-69
2021/01/04 08:30:13;;;;;;;17.20;9.23;;;3.50;99.90;;;;;;5093043;28;20069;-68
2021/01/04 08:33:09;;;;;;;14.68;8.85;;;3.50;99.90;;;;;;5071547;28;20385;-68
2021/01/04 08:35:39;;;;;;;15.35;8.73;;;3.50;99.90;;;;;;5093196;28;20032;-70
2021/01/04 08:38:32;;;;;;;12.77;8.52;;;3.50;99.90;;;;;;5095705;28;20031;-69
2021/01/04 08:41:07;;;;;;;14.00;9.07;;;3.50;99.90;;;;;;5095635;28;20637;-69
2021/01/04 08:43:35;;;;;;;14.52;7.82;;;3.50;99.90;;;;;;5068525;28;20024;-69
2021/01/04 08:46:11;;;;;;;13.45;8.43;;;3.60;99.90;;;;;;5098306;28;20072;-71
2021/01/04 08:48:38;;;;;;;16.20;8.65;;;3.60;99.90;;;;;;5086207;28;20024;-70
2021/01/04 08:51:10;;;;;;;14.88;7.75;;;3.60;99.90;;;;;;5094265;28;20078;-70
2021/01/04 08:53:35;;;;;;;13.68;8.43;;;3.60;99.90;;;;;;5088396;28;20024;-69
2021/01/04 08:56:46;;;;;;;16.85;9.05;;;3.60;99.90;;;;;;5091231;28;20024;-71
2021/01/04 08:59:16;;;;;;;16.10;8.88;;;3.60;99.90;;;;;;5074779;28;20104;-70
2021/01/04 09:01:58;;;;;;;15.35;9.02;;;3.70;99.90;;;;;;5092514;28;20043;-70
2021/01/04 09:04:45;;;;;;;17.48;9.23;;;3.70;99.90;;;;;;5111981;28;20028;-70
2021/01/04 09:07:21;;;;;;;17.30;9.65;;;3.70;99.90;;;;;;5114878;27;20043;-70
2021/01/04 09:10:14;;;;;;;15.98;8.85;;;3.70;99.90;;;;;;5111708;28;20032;-69
2021/01/04 09:12:48;;;;;;;;;;;3.80;99.90;;;;;;5112558;28;20028;-71
2021/01/04 09:15:20;;;;;;;20.73;9.85;;;3.70;99.90;;;;;;5114007;27;19950;-69
2021/01/04 09:17:59;;;;;;;15.25;9.35;;;3.70;99.90;;;;;;5113358;27;20513;-70
2021/01/04 09:20:43;;;;;;;17.95;10.00;;;3.70;99.90;;;;;;5114387;27;20020;-70
2021/01/04 09:23:28;;;;;;;18.40;9.30;;;3.80;99.90;;;;;;5115289;27;20102;-71
2021/01/04 09:26:03;;;;;;;16.20;9.82;;;3.80;99.90;;;;;;5112047;27;20026;-67
2021/01/04 09:28:43;;;;;;;18.10;9.57;;;3.80;99.90;;;;;;5117260;27;20182;-71
2021/01/04 09:31:13;;;;;;;21.80;11.07;;;3.80;99.90;;;;;;5106350;28;20346;-69
2021/01/04 09:33:50;;;;;;;15.65;9.57;;;3.80;99.90;;;;;;5109467;28;20511;-69
2021/01/04 09:36:19;;;;;;;15.13;9.07;;;3.80;99.90;;;;;;5111519;28;20593;-69
2021/01/04 09:38:45;;;;;;;17.48;9.20;;;3.90;99.90;;;;;;5112891;27;20028;-70
2021/01/04 09:41:12;;;;;;;16.67;9.70;;;3.90;99.90;;;;;;5098914;28;20030;-71
2021/01/04 09:43:39;;;;;;;17.45;9.88;;;3.90;99.90;;;;;;5111680;27;20495;-70
2021/01/04 09:46:25;;;;;;;16.02;8.60;;;3.90;99.90;;;;;;5111836;27;20027;-68
2021/01/04 09:48:59;;;;;;;16.80;9.57;;;3.80;99.90;;;;;;5110172;27;20103;-73
2021/01/04 09:51:33;;;;;;;16.65;10.20;;;3.70;99.90;;;;;;5112620;27;20027;-72
2021/01/04 09:54:03;;;;;;;12.48;8.18;;;3.70;99.90;;;;;;5110758;28;20491;-70
2021/01/04 09:56:32;;;;;;;14.38;9.05;;;3.70;99.90;;;;;;5088513;28;20110;-70
2021/01/04 09:59:23;;;;;;;15.13;8.18;;;3.70;99.90;;;;;;5118065;27;20042;-70
2021/01/04 10:02:02;;;;;;;15.02;8.80;;;3.70;99.90;;;;;;5102229;28;20019;-71
2021/01/04 10:04:29;;;;;;;16.80;9.15;;;3.70;99.90;;;;;;5108105;28;20114;-71
2021/01/04 10:06:58;;;;;;;12.10;8.48;;;3.70;99.90;;;;;;5115774;27;20098;-68
2021/01/04 10:09:29;;;;;;;15.65;8.38;;;3.70;99.90;;;;;;5110977;28;20038;-72
2021/01/04 10:11:54;;;;;;;15.15;8.85;;;3.70;99.90;;;;;;5110089;28;20016;-69
2021/01/04 10:14:20;;;;;;;14.73;9.13;;;3.70;99.90;;;;;;5110245;28;20019;-70
2021/01/04 10:16:50;;;;;;;15.55;8.68;;;3.70;99.90;;;;;;5110084;28;20019;-69
2021/01/04 10:19:28;;;;;;;15.02;9.55;;;3.70;99.90;;;;;;5109530;28;20020;-69
2021/01/04 10:22:35;;;;;;;16.75;9.35;;;3.70;99.90;;;;;;5109415;28;20081;-70
2021/01/04 10:25:13;;;;;;;17.70;9.98;;;3.80;99.90;;;;;;5114761;27;20110;-68
2021/01/04 10:27:42;;;;;;;18.67;9.68;;;3.80;99.90;;;;;;5101016;28;20019;-70
2021/01/04 10:30:12;;;;;;;16.58;8.55;;;3.80;99.90;;;;;;5115656;27;20088;-68
2021/01/04 10:32:41;;;;;;;19.55;10.25;;;3.80;99.90;;;;;;5097934;27;20024;-69
2021/01/04 10:35:19;;;;;;;17.88;9.23;;;3.80;99.90;;;;;;5118058;27;20020;-69
2021/01/04 10:37:51;;;;;;;17.90;9.63;;;3.80;99.90;;;;;;5114647;27;20033;-68
2021/01/04 10:40:19;;;;;;;;;;;3.80;99.90;;;;;;5096349;28;20024;-69
2021/01/04 10:42:47;;;;;;;12.70;8.93;;;3.90;99.90;;;;;;5117084;27;19914;-70
2021/01/04 10:45:17;;;;;;;17.92;8.85;;;3.90;99.90;;;;;;5109257;28;20546;-68
2021/01/04 10:48:07;;;;;;;15.45;8.93;;;3.90;99.90;;;;;;5109602;27;20032;-70
2021/01/04 10:50:47;;;;;;;15.00;9.10;;;3.90;99.90;;;;;;5110459;27;20033;-69
2021/01/04 10:53:31;;;;;;;17.00;8.65;;;3.90;99.90;;;;;;5104392;28;20020;-70
2021/01/04 10:56:09;;;;;;;21.27;9.98;;;4.00;99.90;;;;;;5109027;28;20030;-69
2021/01/04 10:58:46;;;;;;;15.80;9.20;;;3.90;99.90;;;;;;5100727;28;20028;-69
2021/01/04 11:01:19;;;;;;;16.85;8.65;;;3.90;99.90;;;;;;5114016;27;20039;-71
2021/01/04 11:03:50;;;;;;;;;;;3.90;99.90;;;;;;5119549;27;20182;-69
2021/01/04 11:06:40;;;;;;;16.08;9.05;;;3.90;99.90;;;;;;5100683;28;20002;-69
2021/01/04 11:09:12;;;;;;;16.48;8.75;;;3.90;99.90;;;;;;5108716;28;20172;-70
2021/01/04 11:11:46;;;;;;;16.23;8.73;;;3.90;99.90;;;;;;5111415;27;20476;-68
2021/01/04 11:14:15;;;;;;;14.60;8.40;;;4.00;99.90;;;;;;5097940;28;20069;-69
2021/01/04 11:16:48;;;;;;;12.80;8.10;;;3.90;99.90;;;;;;5109753;28;20039;-68
2021/01/04 11:19:26;;;;;;;11.02;7.20;;;3.90;99.90;;;;;;5118128;27;20026;-69
2021/01/04 11:21:51;;;;;;;12.57;8.32;;;4.00;99.90;;;;;;5098348;28;20030;-70
2021/01/04 11:24:17;;;;;;;11.85;7.63;;;4.00;99.90;;;;;;5109624;28;20031;-71
2021/01/04 11:26:43;;;;;;;11.57;7.07;;;3.90;99.90;;;;;;5109223;28;20020;-68
2021/01/04 11:29:09;;;;;;;13.30;8.05;;;4.00;99.90;;;;;;5105975;28;20088;-69
2021/01/04 11:31:38;;;;;;;14.90;8.90;;;4.00;99.90;;;;;;5109616;28;20026;-68
2021/01/04 11:34:04;;;;;;;14.20;7.18;;;4.00;99.90;;;;;;5113345;27;20016;-69
2021/01/04 11:36:30;;;;;;;15.50;7.32;;;4.00;99.90;;;;;;5111337;27;20023;-70
2021/01/04 11:39:00;;;;;;;14.40;7.78;;;4.00;99.90;;;;;;5108519;28;20019;-69
2021/01/04 11:41:25;;;;;;;11.90;7.70;;;4.00;99.90;;;;;;5111726;27;20028;-69
2021/01/04 11:43:51;;;;;;;12.07;7.30;;;4.00;99.90;;;;;;5111476;28;20035;-69
2021/01/04 11:46:18;;;;;;;14.15;8.27;;;4.00;99.90;;;;;;5112728;27;20020;-69
2021/01/04 11:48:47;;;;;;;14.85;8.02;;;4.00;99.90;;;;;;5110701;27;20038;-68
2021/01/04 11:51:20;;;;;;;13.95;7.75;;;4.00;99.90;;;;;;5109009;28;20019;-69
2021/01/04 11:53:50;;;;;;;10.27;7.22;;;3.90;99.90;;;;;;5112656;28;20024;-69
2021/01/04 11:56:17;;;;;;;14.70;7.47;;;4.00;99.90;;;;;;5111854;27;20103;-68
2021/01/04 11:58:43;;;;;;;14.02;7.70;;;4.00;99.90;;;;;;5119557;28;20024;-67
2021/01/04 12:01:10;;;;;;;16.10;7.00;;;3.90;99.90;;;;;;5121567;28;20080;-70
2021/01/04 12:03:35;;;;;;;13.95;7.57;;;3.90;99.90;;;;;;5111824;28;20052;-72
2021/01/04 12:06:01;;;;;;;14.02;7.22;;;3.90;99.90;;;;;;5112493;28;20023;-70
2021/01/04 12:08:28;;;;;;;10.68;6.63;;;3.80;99.90;;;;;;5112695;28;20027;-69
2021/01/04 12:10:54;;;;;;;15.05;6.32;;;3.80;99.90;;;;;;5094594;28;20027;-69
2021/01/04 12:13:19;;;;;;;12.40;6.70;;;3.80;99.90;;;;;;5100149;28;20022;-69
2021/01/04 12:15:45;;;;;;;12.35;7.13;;;3.70;99.90;;;;;;5110744;28;20439;-70
2021/01/04 12:18:11;;;;;;;12.43;6.22;;;3.80;99.90;;;;;;5109675;28;20124;-71
2021/01/04 12:20:39;;;;;;;12.25;6.40;;;3.80;99.90;;;;;;5108526;28;20498;-70
2021/01/04 12:23:05;;;;;;;11.15;6.57;;;3.80;99.90;;;;;;5115575;28;20062;-69
2021/01/04 12:25:30;;;;;;;11.10;6.15;;;3.80;99.90;;;;;;5115215;28;20043;-70
2021/01/04 12:27:56;;;;;;;9.57;6.38;;;3.80;99.90;;;;;;5107494;28;20349;-70
2021/01/04 12:30:22;;;;;;;12.70;5.90;;;3.90;99.90;;;;;;5107849;28;20086;-68
2021/01/04 12:32:48;;;;;;;9.65;5.60;;;3.80;99.90;;;;;;5105003;28;20077;-71
2021/01/04 12:35:14;;;;;;;7.70;5.88;;;3.80;99.90;;;;;;5103684;28;20039;-68
2021/01/04 12:37:40;;;;;;;13.82;6.85;;;3.80;99.90;;;;;;5107854;28;20028;-69
2021/01/04 12:40:12;;;;;;;9.10;6.13;;;3.70;99.90;;;;;;5106762;28;20019;-69
2021/01/04 12:42:39;;;;;;;11.15;6.38;;;3.80;99.90;;;;;;5106894;28;20085;-69
2021/01/04 12:45:06;;;;;;;13.02;6.72;;;3.80;99.90;;;;;;5108186;28;20059;-69
2021/01/04 12:47:31;;;;;;;9.55;6.22;;;3.80;99.90;;;;;;5109132;28;20024;-68
2021/01/04 12:49:57;;;;;;;12.77;5.82;;;3.80;99.90;;;;;;5110447;27;20051;-67
2021/01/04 12:52:23;;;;;;;10.48;5.55;;;3.80;99.90;;;;;;5104949;28;20512;-70
2021/01/04 12:54:48;;;;;;;8.18;5.55;;;3.80;99.90;;;;;;5103824;28;20019;-68
2021/01/04 12:57:14;;;;;;;10.65;5.10;;;3.80;99.90;;;;;;5108786;28;20062;-68
2021/01/04 12:59:41;;;;;;;10.02;6.05;;;3.80;99.90;;;;;;5102288;28;20115;-71
2021/01/04 13:02:10;;;;;;;10.80;6.28;;;3.80;99.90;;;;;;5108029;28;20035;-69
2021/01/04 13:04:40;;;;;;;8.90;6.25;;;3.70;99.90;;;;;;5107732;28;20028;-69
2021/01/04 13:07:06;;;;;;;10.82;6.03;;;3.70;99.90;;;;;;5105571;28;20095;-70
2021/01/04 13:09:32;;;;;;;12.05;6.65;;;3.70;99.90;;;;;;5116325;27;20122;-68
2021/01/04 13:11:58;;;;;;;13.07;5.70;;;3.70;99.90;;;;;;5113169;27;22039;-70
2021/01/04 13:14:23;;;;;;;9.80;5.22;;;3.70;99.90;;;;;;5104737;28;20051;-69
2021/01/04 13:16:49;;;;;;;12.98;5.55;;;3.60;99.90;;;;;;5111770;28;20104;-69
2021/01/04 13:19:16;;;;;;;10.10;5.10;;;3.70;99.90;;;;;;5113377;27;20028;-69
2021/01/04 13:21:42;;;;;;;8.60;5.50;;;3.60;99.90;;;;;;5130420;27;20084;-70
2021/01/04 13:24:11;;;;;;;11.55;5.40;;;3.60;99.90;;;;;;5114669;27;20102;-68
2021/01/04 13:26:47;;;;;;;9.70;5.40;;;3.60;99.90;;;;;;5121417;27;20787;-70
2021/01/04 13:29:16;;;;;;;7.35;5.07;;;3.60;99.90;;;;;;5110493;28;20047;-68
2021/01/04 13:31:44;;;;;;;8.95;4.95;;;3.60;99.90;;;;;;5111397;28;20483;-68
2021/01/04 13:34:10;;;;;;;8.10;4.45;;;3.60;99.90;;;;;;5110631;28;20059;-69
2021/01/04 13:36:36;;;;;;;7.13;4.72;;;3.60;99.90;;;;;;5107386;28;20058;-70